Terminal Aerodrome Forecast
Issued by NWS Jackson, KY

Home | Current Version | Previous Version | Text Only | Print | Product List | Glossary On
Versions: 1 2 3 4 5 6 7 8 9 10 11 12 13 14
000
FTUS43 KJKL 220500
TAFLOZ
TAF
KLOZ 220540Z 2206/2306 VRB05KT P6SM FEW060
     FM220900 VRB03KT P6SM BKN025
     FM221400 VRB03KT P6SM SCT015 SCT035
     FM221900 VRB04KT P6SM FEW040=

USA.gov is the U.S. government's official web portal to all federal, state and local government web resources and services.